Time;durP1;ratioP1;P1;durP2;ratioP2;P2;SDS_P1;SDS_P2;PMS_P1;PMS_P2;Temp;Humidity;BMP_temperature;BMP_pressure;BME280_temperature;BME280_humidity;BME280_pressure;Samples;Min_cycle;Max_cycle;Signal;HPM_P1;HPM_P2
2020/12/17 00:00:23;;;;;;;9.60;6.25;;;8.50;99.90;;;;;;5032432;28;20052;-89
2020/12/17 00:02:49;;;;;;;11.15;6.90;;;8.50;99.90;;;;;;5049176;28;20033;-86
2020/12/17 00:05:14;;;;;;;12.23;7.30;;;8.50;99.90;;;;;;5039975;28;20131;-87
2020/12/17 00:07:40;;;;;;;10.57;6.82;;;8.50;99.90;;;;;;5048360;28;20067;-86
2020/12/17 00:10:07;;;;;;;12.40;7.75;;;8.50;99.90;;;;;;5032206;28;20036;-87
2020/12/17 00:12:37;;;;;;;9.20;6.60;;;8.50;99.90;;;;;;5031773;28;20033;-87
2020/12/17 00:15:11;;;;;;;10.10;6.88;;;8.50;99.90;;;;;;5058926;28;20056;-87
2020/12/17 00:17:41;;;;;;;10.27;5.75;;;8.50;99.90;;;;;;5071690;28;20040;-87
2020/12/17 00:20:07;;;;;;;9.77;7.18;;;8.50;99.90;;;;;;5071870;28;20032;-87
2020/12/17 00:22:34;;;;;;;9.63;5.95;;;8.50;99.90;;;;;;5071962;28;20040;-87
2020/12/17 00:25:02;;;;;;;8.57;5.70;;;8.50;99.90;;;;;;5071355;28;20551;-88
2020/12/17 00:27:28;;;;;;;9.18;6.32;;;8.50;99.90;;;;;;5071515;28;20095;-87
2020/12/17 00:29:53;;;;;;;10.35;6.72;;;8.40;99.90;;;;;;5089151;28;20031;-90
2020/12/17 00:32:19;;;;;;;11.15;7.93;;;8.50;99.90;;;;;;5072328;28;20024;-93
2020/12/17 00:34:45;;;;;;;11.15;6.28;;;8.50;99.90;;;;;;5088119;28;20036;-91
2020/12/17 00:37:13;;;;;;;10.80;6.60;;;8.50;99.90;;;;;;5071252;28;20070;-88
2020/12/17 00:39:38;;;;;;;9.02;5.78;;;8.40;99.90;;;;;;5071662;28;20036;-86
2020/12/17 00:42:04;;;;;;;10.32;6.85;;;8.50;99.90;;;;;;5071475;28;20039;-87
2020/12/17 00:44:30;;;;;;;9.85;6.90;;;8.50;99.90;;;;;;5071688;28;20032;-89
2020/12/17 00:46:56;;;;;;;11.90;6.97;;;8.50;99.90;;;;;;5071362;28;20099;-87
2020/12/17 00:49:21;;;;;;;10.55;6.55;;;8.50;99.90;;;;;;5071597;28;20043;-87
2020/12/17 00:51:47;;;;;;;10.90;6.53;;;8.50;99.90;;;;;;5088445;28;20028;-87
2020/12/17 00:54:13;;;;;;;11.07;5.68;;;8.50;99.90;;;;;;5071399;28;20039;-88
2020/12/17 00:56:45;;;;;;;11.82;6.53;;;8.50;99.90;;;;;;5071540;28;20035;-89
2020/12/17 00:59:11;;;;;;;9.82;6.40;;;8.50;99.90;;;;;;5071199;28;20036;-87
2020/12/17 01:01:36;;;;;;;10.35;5.72;;;8.50;99.90;;;;;;5071278;28;20054;-87
2020/12/17 01:07:22;;;;;;;9.27;5.90;;;8.60;99.90;;;;;;5110200;22;20086;-87
2020/12/17 01:09:48;;;;;;;8.52;5.93;;;8.60;99.90;;;;;;5071902;28;20119;-89
2020/12/17 01:12:14;;;;;;;10.13;6.40;;;8.50;99.90;;;;;;5088339;28;20387;-87
2020/12/17 01:14:39;;;;;;;11.63;7.57;;;8.50;99.90;;;;;;5104565;28;20028;-88
2020/12/17 01:17:06;;;;;;;10.63;6.60;;;8.50;99.90;;;;;;5051784;28;20037;-88
2020/12/17 01:19:32;;;;;;;12.57;7.55;;;8.50;99.90;;;;;;5051583;28;20048;-88
2020/12/17 01:21:58;;;;;;;10.80;7.15;;;8.50;99.90;;;;;;5068294;28;20032;-89
2020/12/17 01:24:24;;;;;;;9.65;6.95;;;8.50;99.90;;;;;;5051157;28;20036;-88
2020/12/17 01:26:55;;;;;;;11.05;6.30;;;8.50;99.90;;;;;;5067865;28;20033;-85
2020/12/17 01:29:21;;;;;;;10.27;7.38;;;8.50;99.90;;;;;;5051517;28;20119;-86
2020/12/17 01:31:47;;;;;;;11.77;7.72;;;8.50;99.90;;;;;;5051592;28;20044;-85
2020/12/17 01:34:13;;;;;;;11.88;7.55;;;8.50;99.90;;;;;;5051386;28;20116;-87
2020/12/17 01:36:39;;;;;;;10.02;7.32;;;8.40;99.90;;;;;;5051366;28;20036;-89
2020/12/17 01:39:07;;;;;;;9.95;7.22;;;8.50;99.90;;;;;;5054760;28;20044;-87
2020/12/17 01:41:33;;;;;;;12.00;6.25;;;8.50;99.90;;;;;;5054785;28;20036;-86
2020/12/17 01:44:01;;;;;;;12.02;7.72;;;8.40;99.90;;;;;;5055172;28;20108;-85
2020/12/17 01:46:28;;;;;;;10.07;6.40;;;8.40;99.90;;;;;;5054548;28;20035;-86
2020/12/17 01:48:54;;;;;;;10.82;6.50;;;8.50;99.90;;;;;;5054863;28;20333;-87
2020/12/17 01:51:19;;;;;;;11.00;6.55;;;8.50;99.90;;;;;;5054898;28;20028;-90
2020/12/17 01:53:45;;;;;;;9.18;5.80;;;8.50;99.90;;;;;;5054814;28;20039;-88
2020/12/17 01:56:28;;;;;;;9.13;5.95;;;8.50;99.90;;;;;;5054855;28;20067;-87
2020/12/17 01:58:53;;;;;;;8.88;5.57;;;8.40;99.90;;;;;;5054769;28;20040;-87
2020/12/17 02:01:23;;;;;;;11.43;6.70;;;8.50;99.90;;;;;;5054502;28;20039;-86
2020/12/17 02:03:49;;;;;;;9.48;6.72;;;8.50;99.90;;;;;;5054335;28;20032;-87
2020/12/17 02:06:15;;;;;;;9.48;5.43;;;8.50;99.90;;;;;;5060078;28;20068;-87
2020/12/17 02:08:41;;;;;;;8.88;4.85;;;8.50;99.90;;;;;;5091024;28;20062;-87
2020/12/17 02:11:10;;;;;;;7.78;4.97;;;8.50;99.90;;;;;;5091155;28;20031;-86
2020/12/17 02:13:36;;;;;;;9.15;5.30;;;8.50;99.90;;;;;;5074249;28;20036;-86
2020/12/17 02:16:07;;;;;;;7.78;5.13;;;8.50;99.90;;;;;;5070655;28;20063;-87
2020/12/17 02:18:34;;;;;;;7.95;4.93;;;8.50;99.90;;;;;;5054069;28;20045;-87
2020/12/17 02:21:01;;;;;;;7.43;5.50;;;8.50;99.90;;;;;;5054229;28;20035;-85
2020/12/17 02:23:27;;;;;;;10.00;5.13;;;8.50;99.90;;;;;;5053949;28;20032;-85
2020/12/17 02:25:53;;;;;;;8.00;5.35;;;8.60;99.90;;;;;;5070539;28;20131;-86
2020/12/17 02:28:22;;;;;;;6.90;4.93;;;8.50;99.90;;;;;;5053776;28;20036;-86
2020/12/17 02:30:49;;;;;;;7.22;5.15;;;8.60;99.90;;;;;;5053863;28;20059;-88
2020/12/17 02:33:14;;;;;;;8.00;4.75;;;8.50;99.90;;;;;;5090040;28;20028;-87
2020/12/17 02:35:41;;;;;;;8.13;5.65;;;8.60;99.90;;;;;;5073697;28;20028;-88
2020/12/17 02:38:07;;;;;;;7.63;4.85;;;8.60;99.90;;;;;;5073194;28;20108;-86
2020/12/17 02:40:33;;;;;;;6.30;4.25;;;8.60;99.90;;;;;;5073851;28;20483;-86
2020/12/17 02:42:59;;;;;;;8.38;4.28;;;8.60;99.90;;;;;;5073322;28;20047;-86
2020/12/17 02:45:25;;;;;;;8.25;5.07;;;8.60;99.90;;;;;;5073398;28;20034;-88
2020/12/17 02:47:51;;;;;;;6.38;4.63;;;8.60;99.90;;;;;;5073387;28;20056;-86
2020/12/17 02:50:17;;;;;;;7.10;4.63;;;8.60;99.90;;;;;;5073671;28;20028;-87
2020/12/17 02:52:43;;;;;;;6.00;4.13;;;8.70;99.90;;;;;;5073482;28;20024;-88
2020/12/17 02:55:11;;;;;;;5.78;3.80;;;8.60;99.90;;;;;;5073247;28;20039;-86
2020/12/17 02:57:37;;;;;;;7.95;4.25;;;8.60;99.90;;;;;;5073404;28;20058;-86
2020/12/17 03:00:08;;;;;;;8.35;3.80;;;8.70;99.90;;;;;;5090143;28;20032;-87
2020/12/17 03:02:34;;;;;;;7.32;5.10;;;8.60;99.90;;;;;;5073607;28;20146;-86
2020/12/17 03:08:29;;;;;;;4.57;3.35;;;8.70;99.90;;;;;;4911878;29;20138;-87
2020/12/17 03:10:54;;;;;;;4.55;3.08;;;8.70;99.90;;;;;;4890863;29;20113;-87
2020/12/17 03:13:23;;;;;;;6.15;3.45;;;8.70;99.90;;;;;;4875271;29;20072;-89
2020/12/17 03:15:48;;;;;;;4.93;2.88;;;8.70;99.90;;;;;;4875254;29;20037;-86
2020/12/17 03:18:15;;;;;;;4.18;3.15;;;8.70;99.90;;;;;;4857087;29;20211;-87
2020/12/17 03:20:40;;;;;;;4.88;2.67;;;8.80;99.90;;;;;;4856918;29;20109;-87
2020/12/17 03:23:06;;;;;;;5.70;3.30;;;8.80;99.90;;;;;;4841606;29;20053;-86
2020/12/17 03:25:32;;;;;;;5.00;3.20;;;8.80;99.90;;;;;;4841284;29;20109;-87
2020/12/17 03:27:57;;;;;;;4.55;2.80;;;8.80;99.90;;;;;;4841410;29;20074;-86
2020/12/17 03:30:23;;;;;;;5.32;2.33;;;8.90;99.90;;;;;;4841438;29;20041;-87
2020/12/17 03:32:49;;;;;;;4.25;2.40;;;8.90;99.90;;;;;;4841334;29;20049;-87
2020/12/17 03:35:14;;;;;;;3.38;2.28;;;8.90;99.90;;;;;;4840935;29;20052;-89
2020/12/17 03:37:40;;;;;;;4.38;2.25;;;8.90;99.90;;;;;;4856549;29;20068;-89
2020/12/17 03:40:05;;;;;;;3.95;2.92;;;8.90;99.90;;;;;;4841374;29;20040;-87
2020/12/17 03:42:31;;;;;;;6.45;2.92;;;9.00;99.90;;;;;;4841197;29;20045;-87
2020/12/17 03:44:57;;;;;;;3.20;2.50;;;9.00;99.90;;;;;;4907119;28;20040;-86
2020/12/17 03:47:24;;;;;;;4.30;1.63;;;8.90;99.90;;;;;;5008383;28;20036;-87
2020/12/17 03:49:50;;;;;;;6.03;2.45;;;8.90;99.90;;;;;;5052195;28;20025;-90
2020/12/17 03:52:15;;;;;;;3.83;2.85;;;8.90;99.90;;;;;;5052165;28;20039;-88
2020/12/17 03:54:41;;;;;;;4.70;2.95;;;9.00;99.90;;;;;;5052020;28;20033;-88
2020/12/17 03:57:07;;;;;;;4.90;2.97;;;9.00;99.90;;;;;;5051831;28;20036;-87
2020/12/17 03:59:32;;;;;;;4.63;2.85;;;9.00;99.90;;;;;;5050947;28;20055;-86
2020/12/17 04:01:58;;;;;;;4.88;2.95;;;9.00;99.90;;;;;;5052113;28;20507;-89
2020/12/17 04:04:24;;;;;;;7.82;3.53;;;9.10;99.90;;;;;;5068312;28;20047;-89
2020/12/17 04:06:50;;;;;;;6.30;2.55;;;9.00;99.90;;;;;;5079427;28;20028;-88
2020/12/17 04:09:16;;;;;;;4.68;2.25;;;9.00;99.90;;;;;;5071840;28;20111;-88
2020/12/17 04:11:41;;;;;;;4.55;2.60;;;9.00;99.90;;;;;;5088577;28;20043;-87
2020/12/17 04:14:07;;;;;;;4.90;3.10;;;9.00;99.90;;;;;;5071819;28;20028;-89
2020/12/17 04:16:32;;;;;;;4.28;2.78;;;9.00;99.90;;;;;;5068373;28;20036;-87
2020/12/17 04:18:58;;;;;;;5.72;2.50;;;9.10;99.90;;;;;;5068510;28;20044;-88
2020/12/17 04:21:24;;;;;;;8.43;4.05;;;9.00;99.90;;;;;;5068465;28;20024;-87
2020/12/17 04:23:50;;;;;;;4.07;3.20;;;9.10;99.90;;;;;;5051231;28;20071;-86
2020/12/17 04:26:15;;;;;;;4.28;3.45;;;9.10;99.90;;;;;;5068120;28;20029;-86
2020/12/17 04:28:41;;;;;;;8.02;4.30;;;9.10;99.90;;;;;;5068033;28;20166;-88
2020/12/17 04:31:07;;;;;;;6.63;3.92;;;9.10;99.90;;;;;;5051957;28;20112;-86
2020/12/17 04:33:33;;;;;;;5.00;3.63;;;9.10;99.90;;;;;;5068317;28;20037;-86
2020/12/17 04:35:59;;;;;;;6.90;4.22;;;9.10;99.90;;;;;;5068422;28;20036;-85
2020/12/17 04:38:25;;;;;;;5.80;4.28;;;9.10;99.90;;;;;;5051544;28;20079;-87
2020/12/17 04:40:51;;;;;;;6.90;4.15;;;9.10;99.90;;;;;;5068187;28;20029;-87
2020/12/17 04:43:17;;;;;;;7.60;3.28;;;9.00;99.90;;;;;;5051478;28;20032;-87
2020/12/17 04:45:42;;;;;;;4.95;3.00;;;9.00;99.90;;;;;;5051417;28;20135;-87
2020/12/17 04:48:11;;;;;;;5.40;3.20;;;9.00;99.90;;;;;;5051745;28;20097;-89
2020/12/17 04:50:37;;;;;;;6.32;4.13;;;9.00;99.90;;;;;;5068152;28;20025;-87
2020/12/17 04:53:03;;;;;;;6.00;3.25;;;9.10;99.90;;;;;;5084711;28;20156;-88
2020/12/17 04:55:30;;;;;;;6.65;4.55;;;9.00;99.90;;;;;;5067828;28;20131;-88
2020/12/17 04:58:00;;;;;;;5.15;3.72;;;9.00;99.90;;;;;;5067748;28;20432;-87
2020/12/17 05:00:26;;;;;;;6.50;3.80;;;9.00;99.90;;;;;;5068097;28;20136;-87
2020/12/17 05:02:56;;;;;;;6.18;3.22;;;9.00;99.90;;;;;;5067968;28;20024;-88
2020/12/17 05:05:25;;;;;;;6.03;3.45;;;9.00;99.90;;;;;;5067947;28;20092;-88
2020/12/17 05:07:51;;;;;;;7.10;4.75;;;9.00;99.90;;;;;;5067822;28;20066;-87
2020/12/17 05:10:17;;;;;;;7.22;4.50;;;9.10;99.90;;;;;;5050862;28;20044;-87
2020/12/17 05:12:42;;;;;;;8.68;4.32;;;9.00;99.90;;;;;;5054355;28;20439;-89
2020/12/17 05:15:08;;;;;;;6.95;4.97;;;9.00;99.90;;;;;;5074344;28;20031;-88
2020/12/17 05:17:33;;;;;;;8.48;4.82;;;9.00;99.90;;;;;;5071708;28;20036;-90
2020/12/17 05:19:59;;;;;;;8.35;5.55;;;9.00;99.90;;;;;;5071786;28;20047;-88
2020/12/17 05:22:25;;;;;;;8.25;5.20;;;9.00;99.90;;;;;;5071645;28;20032;-87
2020/12/17 05:24:50;;;;;;;5.05;4.03;;;9.10;99.90;;;;;;5071049;28;20033;-89
2020/12/17 05:27:16;;;;;;;7.78;4.80;;;9.10;99.90;;;;;;5071453;28;20039;-90
2020/12/17 05:29:42;;;;;;;9.43;6.47;;;9.00;99.90;;;;;;5056694;28;20151;-89
2020/12/17 05:32:10;;;;;;;9.38;5.20;;;9.10;99.90;;;;;;5071272;28;20028;-87
2020/12/17 05:34:37;;;;;;;7.53;4.18;;;9.00;99.90;;;;;;5071193;28;20047;-89
2020/12/17 05:37:06;;;;;;;9.38;4.30;;;9.00;99.90;;;;;;5057276;28;20040;-91
2020/12/17 05:39:33;;;;;;;8.90;5.85;;;9.00;99.90;;;;;;5080949;28;20060;-87
2020/12/17 05:41:58;;;;;;;11.13;7.97;;;9.10;99.90;;;;;;5074114;28;20039;-88
2020/12/17 05:44:29;;;;;;;12.43;6.95;;;9.10;99.90;;;;;;5090840;28;20123;-86
2020/12/17 05:46:56;;;;;;;13.65;9.40;;;9.20;99.90;;;;;;5091390;28;20089;-88
2020/12/17 05:49:30;;;;;;;11.32;8.35;;;9.20;99.90;;;;;;5074615;28;20032;-89
2020/12/17 05:52:12;;;;;;;13.57;9.02;;;9.20;99.90;;;;;;5090972;28;20036;-90
2020/12/17 05:54:42;;;;;;;12.07;6.72;;;9.20;99.90;;;;;;5072058;28;20055;-88
2020/12/17 05:57:12;;;;;;;7.13;5.00;;;9.20;99.90;;;;;;5057397;28;20062;-86
2020/12/17 05:59:39;;;;;;;8.30;5.30;;;9.10;99.90;;;;;;5074598;28;20047;-86
2020/12/17 06:02:23;;;;;;;6.72;5.70;;;9.20;99.90;;;;;;5075065;28;20031;-86
2020/12/17 06:05:08;;;;;;;8.85;6.15;;;9.10;99.90;;;;;;5080841;23;20133;-87
2020/12/17 06:07:45;;;;;;;7.45;5.15;;;9.20;99.90;;;;;;4990781;28;20053;-86
2020/12/17 06:10:16;;;;;;;9.07;5.57;;;9.10;99.90;;;;;;5000662;28;20394;-85
2020/12/17 06:12:44;;;;;;;7.00;4.88;;;9.20;99.90;;;;;;4976004;28;20478;-86
2020/12/17 06:15:20;;;;;;;5.90;4.55;;;9.10;99.90;;;;;;5014328;28;20486;-85
2020/12/17 06:17:49;;;;;;;7.93;4.18;;;9.20;99.90;;;;;;5009005;28;20239;-85
2020/12/17 06:20:16;;;;;;;8.80;5.50;;;9.20;99.90;;;;;;5013225;28;20562;-85
2020/12/17 06:22:49;;;;;;;6.63;4.75;;;9.20;99.90;;;;;;5009758;28;20042;-85
2020/12/17 06:25:17;;;;;;;6.25;4.53;;;9.10;99.90;;;;;;5008201;28;20036;-85
2020/12/17 06:27:46;;;;;;;7.07;5.00;;;9.10;99.90;;;;;;4997423;28;20033;-84
2020/12/17 06:30:15;;;;;;;6.40;4.80;;;9.10;99.90;;;;;;5006300;28;20097;-85
2020/12/17 06:32:41;;;;;;;7.45;4.30;;;9.10;99.90;;;;;;5028331;28;20087;-85
2020/12/17 06:35:21;;;;;;;7.78;4.97;;;9.10;99.90;;;;;;5024877;28;20041;-85
2020/12/17 06:37:48;;;;;;;6.63;4.28;;;9.10;99.90;;;;;;5011244;28;20085;-85
2020/12/17 06:40:27;;;;;;;7.95;5.25;;;9.10;99.90;;;;;;5029226;28;20033;-85
2020/12/17 06:42:53;;;;;;;8.35;7.07;;;9.10;99.90;;;;;;5035266;28;20613;-86
2020/12/17 06:45:26;;;;;;;9.25;5.95;;;9.10;99.90;;;;;;5026092;28;20041;-85
2020/12/17 06:47:52;;;;;;;6.47;4.47;;;9.10;99.90;;;;;;5025302;28;20265;-84
2020/12/17 06:50:37;;;;;;;8.55;7.07;;;9.10;99.90;;;;;;5029691;28;20303;-84
2020/12/17 06:53:12;;;;;;;9.25;7.43;;;9.10;99.90;;;;;;5003524;28;20034;-84
2020/12/17 06:55:51;;;;;;;11.65;8.90;;;9.10;99.90;;;;;;5029717;28;20048;-85
2020/12/17 06:58:20;;;;;;;10.18;8.38;;;9.10;99.90;;;;;;5029739;28;20050;-82
2020/12/17 07:00:48;;;;;;;8.88;7.68;;;9.10;99.90;;;;;;5013328;28;20041;-83
2020/12/17 07:03:44;;;;;;;7.85;6.63;;;9.10;99.90;;;;;;5029339;28;20044;-84
2020/12/17 07:06:19;;;;;;;7.80;6.43;;;9.10;99.90;;;;;;4943009;29;20139;-84
2020/12/17 07:08:52;;;;;;;7.93;6.80;;;9.00;99.90;;;;;;4947502;29;20040;-83
2020/12/17 07:11:46;;;;;;;10.73;7.82;;;9.00;99.90;;;;;;4931744;29;20047;-84
2020/12/17 07:14:24;;;;;;;10.57;7.05;;;9.00;99.90;;;;;;4931619;29;20039;-84
2020/12/17 07:16:51;;;;;;;10.02;7.93;;;9.00;99.90;;;;;;4947283;29;20050;-84
2020/12/17 07:19:27;;;;;;;11.98;9.27;;;9.00;99.90;;;;;;4931265;29;20055;-84
2020/12/17 07:22:04;;;;;;;8.95;7.00;;;9.00;99.90;;;;;;4947368;29;20488;-86
2020/12/17 07:24:38;;;;;;;8.55;6.85;;;8.90;99.90;;;;;;4931492;29;20043;-84
2020/12/17 07:27:07;;;;;;;11.02;8.23;;;8.90;99.90;;;;;;4931430;29;20062;-83
2020/12/17 07:29:45;;;;;;;9.48;6.70;;;9.00;99.90;;;;;;4947141;29;20036;-83
2020/12/17 07:32:27;;;;;;;9.90;7.70;;;9.00;99.90;;;;;;4932459;29;20508;-83
2020/12/17 07:34:54;;;;;;;7.57;6.57;;;9.00;99.90;;;;;;4945827;29;20136;-83
2020/12/17 07:37:37;;;;;;;10.48;7.80;;;8.90;99.90;;;;;;4931153;29;20114;-84
2020/12/17 07:40:11;;;;;;;10.75;7.85;;;8.90;99.90;;;;;;4931268;29;20055;-83
2020/12/17 07:42:38;;;;;;;10.15;7.00;;;8.90;99.90;;;;;;4971288;28;20057;-84
2020/12/17 07:45:04;;;;;;;9.90;7.90;;;8.90;99.90;;;;;;4989524;28;20069;-85
2020/12/17 07:47:30;;;;;;;14.07;8.55;;;8.90;99.90;;;;;;4989300;28;20035;-83
2020/12/17 07:49:56;;;;;;;13.52;8.80;;;8.90;99.90;;;;;;4989512;28;20040;-83
2020/12/17 07:52:32;;;;;;;11.85;9.52;;;8.90;99.90;;;;;;5005821;28;20041;-84
2020/12/17 07:55:00;;;;;;;10.73;8.20;;;8.90;99.90;;;;;;4989546;28;20038;-84
2020/12/17 07:57:26;;;;;;;13.20;9.02;;;8.90;99.90;;;;;;5005605;28;20094;-84
2020/12/17 07:59:52;;;;;;;12.02;9.07;;;8.90;99.90;;;;;;4989397;28;20035;-83
2020/12/17 08:02:17;;;;;;;12.73;9.35;;;8.90;99.90;;;;;;5005248;28;20039;-83
2020/12/17 08:04:53;;;;;;;13.70;10.60;;;8.90;99.90;;;;;;4988929;28;20034;-84
2020/12/17 08:07:20;;;;;;;11.98;9.48;;;8.90;99.90;;;;;;5006770;28;20084;-84
2020/12/17 08:09:59;;;;;;;11.27;8.70;;;8.90;99.90;;;;;;5012402;28;20029;-83
2020/12/17 08:12:24;;;;;;;12.80;9.88;;;8.80;99.90;;;;;;5012080;28;20045;-84
2020/12/17 08:14:50;;;;;;;11.25;8.68;;;8.90;99.90;;;;;;5044652;28;20025;-84
2020/12/17 08:17:19;;;;;;;11.60;8.50;;;8.90;99.90;;;;;;5028008;28;20037;-84
2020/12/17 08:19:56;;;;;;;8.57;7.57;;;8.90;99.90;;;;;;5045089;28;20042;-85
2020/12/17 08:22:28;;;;;;;11.02;7.90;;;8.90;99.90;;;;;;5028456;28;20033;-84
2020/12/17 08:24:54;;;;;;;10.50;7.68;;;8.90;99.90;;;;;;5011708;28;20033;-84
2020/12/17 08:27:23;;;;;;;9.27;7.30;;;8.90;99.90;;;;;;5011824;28;20033;-83
2020/12/17 08:29:49;;;;;;;7.47;6.32;;;8.90;99.90;;;;;;5028426;28;20053;-84
2020/12/17 08:32:15;;;;;;;11.98;9.20;;;8.90;99.90;;;;;;5044380;28;20038;-84
2020/12/17 08:34:54;;;;;;;10.23;7.43;;;8.90;99.90;;;;;;5011449;28;20033;-84
2020/12/17 08:37:23;;;;;;;8.50;6.75;;;8.90;99.90;;;;;;5011493;28;20043;-84
2020/12/17 08:40:01;;;;;;;11.75;8.25;;;8.90;99.90;;;;;;5011110;28;20095;-84
2020/12/17 08:42:33;;;;;;;11.43;9.50;;;8.90;99.90;;;;;;5010948;28;20033;-86
2020/12/17 08:45:09;;;;;;;13.43;9.38;;;8.90;99.90;;;;;;5027146;28;20109;-85
2020/12/17 08:47:38;;;;;;;12.00;9.65;;;9.00;99.90;;;;;;5013882;28;20037;-85
2020/12/17 08:50:06;;;;;;;12.55;9.52;;;9.00;99.90;;;;;;5015297;28;20036;-86
2020/12/17 08:52:32;;;;;;;13.70;9.57;;;9.00;99.90;;;;;;5015110;28;20029;-86
2020/12/17 08:55:04;;;;;;;13.55;10.52;;;9.00;99.90;;;;;;5014755;28;20038;-85
2020/12/17 08:57:29;;;;;;;12.30;9.43;;;9.00;99.90;;;;;;5047499;28;20059;-84
2020/12/17 08:59:55;;;;;;;12.88;9.13;;;9.00;99.90;;;;;;5015002;28;20030;-85
2020/12/17 09:02:29;;;;;;;13.35;9.95;;;9.00;99.90;;;;;;5031167;28;20033;-84
2020/12/17 09:05:03;;;;;;;12.90;9.65;;;9.00;99.90;;;;;;5014399;28;20033;-85
2020/12/17 09:07:31;;;;;;;11.68;9.48;;;9.10;99.90;;;;;;5031440;28;20041;-85
2020/12/17 09:10:10;;;;;;;15.15;9.63;;;9.10;99.90;;;;;;5014969;28;20033;-85
2020/12/17 09:12:36;;;;;;;11.63;9.03;;;9.10;99.90;;;;;;5031444;28;20029;-85
2020/12/17 09:15:10;;;;;;;11.40;9.40;;;9.10;99.90;;;;;;5027722;28;20033;-86
2020/12/17 09:17:37;;;;;;;10.07;7.88;;;9.10;99.90;;;;;;4994890;28;20078;-87
2020/12/17 09:20:15;;;;;;;10.95;8.60;;;9.20;99.90;;;;;;5011449;28;20064;-85
2020/12/17 09:22:41;;;;;;;9.35;7.82;;;9.20;99.90;;;;;;5044044;28;20034;-86
2020/12/17 09:25:07;;;;;;;13.38;8.77;;;9.30;99.90;;;;;;5027711;28;20034;-85
2020/12/17 09:27:35;;;;;;;11.02;7.97;;;9.30;99.90;;;;;;4994989;28;20030;-86
2020/12/17 09:30:15;;;;;;;10.55;6.90;;;9.30;99.90;;;;;;4995133;28;20056;-86
2020/12/17 09:32:54;;;;;;;10.25;7.22;;;9.30;99.90;;;;;;5011347;28;20077;-84
2020/12/17 09:35:22;;;;;;;9.18;6.22;;;9.30;99.90;;;;;;5010729;28;20045;-86
2020/12/17 09:38:01;;;;;;;15.13;8.15;;;9.30;99.90;;;;;;5010890;28;20046;-86
2020/12/17 09:40:28;;;;;;;11.20;7.35;;;9.30;99.90;;;;;;5011347;28;20118;-86
2020/12/17 09:43:12;;;;;;;12.13;7.57;;;9.40;99.90;;;;;;5028654;28;20109;-86
2020/12/17 09:45:40;;;;;;;7.85;5.00;;;9.40;99.90;;;;;;5011206;28;20053;-88
2020/12/17 09:48:17;;;;;;;9.45;5.97;;;9.40;99.90;;;;;;4994572;28;20033;-86
2020/12/17 09:50:56;;;;;;;9.38;6.03;;;9.30;99.90;;;;;;5010943;28;20046;-85
2020/12/17 09:53:23;;;;;;;7.93;4.53;;;9.30;99.90;;;;;;5010738;28;20030;-86
2020/12/17 09:55:49;;;;;;;7.80;4.85;;;9.40;99.90;;;;;;5010566;28;20276;-86
2020/12/17 09:58:15;;;;;;;8.15;4.78;;;9.40;99.90;;;;;;4993536;28;20065;-84
2020/12/17 10:00:40;;;;;;;9.32;4.18;;;9.40;99.90;;;;;;5010794;28;20026;-86
2020/12/17 10:03:06;;;;;;;7.80;4.70;;;9.40;99.90;;;;;;5010670;28;20098;-88
2020/12/17 10:05:34;;;;;;;6.13;4.20;;;9.40;99.90;;;;;;5042806;28;20053;-88
2020/12/17 10:08:00;;;;;;;6.72;3.83;;;9.40;99.90;;;;;;5026621;28;20339;-87
2020/12/17 10:10:26;;;;;;;8.68;4.50;;;9.40;99.90;;;;;;5027054;28;20044;-87
2020/12/17 10:12:51;;;;;;;7.22;3.60;;;9.50;99.90;;;;;;5026855;28;20128;-88
2020/12/17 10:15:17;;;;;;;5.80;2.67;;;9.50;99.90;;;;;;5033625;28;20036;-87
2020/12/17 10:17:43;;;;;;;7.18;3.97;;;9.50;99.90;;;;;;5029049;28;20045;-86
2020/12/17 10:20:12;;;;;;;7.65;4.95;;;9.50;99.90;;;;;;5046349;28;20040;-87
2020/12/17 10:22:38;;;;;;;5.93;4.28;;;9.50;99.90;;;;;;5030014;28;20029;-86
2020/12/17 10:25:06;;;;;;;7.68;4.18;;;9.50;99.90;;;;;;5013323;28;20029;-86
2020/12/17 10:27:33;;;;;;;8.35;4.38;;;9.50;99.90;;;;;;5013466;28;20060;-87
2020/12/17 10:29:59;;;;;;;8.75;4.68;;;9.50;99.90;;;;;;5013541;28;20432;-87
2020/12/17 10:32:25;;;;;;;8.25;4.45;;;9.50;99.90;;;;;;5030026;28;20089;-87
2020/12/17 10:34:50;;;;;;;7.35;4.05;;;9.50;99.90;;;;;;5029376;28;20030;-87
2020/12/17 10:37:16;;;;;;;10.57;4.15;;;9.50;99.90;;;;;;5029693;28;20037;-87
2020/12/17 10:39:44;;;;;;;6.75;3.83;;;9.50;99.90;;;;;;5029897;28;20041;-88
2020/12/17 10:42:10;;;;;;;6.13;3.60;;;9.50;99.90;;;;;;5013166;28;20029;-88
2020/12/17 10:44:36;;;;;;;6.50;3.47;;;9.60;99.90;;;;;;5029428;28;20030;-87
2020/12/17 10:47:06;;;;;;;6.80;3.53;;;9.60;99.90;;;;;;5013258;28;20033;-88
2020/12/17 10:49:33;;;;;;;5.25;3.25;;;9.60;99.90;;;;;;5013288;28;20461;-85
2020/12/17 10:51:58;;;;;;;9.23;3.75;;;9.70;99.90;;;;;;5012935;28;20041;-89
2020/12/17 10:54:24;;;;;;;6.85;3.17;;;9.70;99.90;;;;;;5029391;28;20040;-87
2020/12/17 10:56:50;;;;;;;6.15;3.17;;;9.80;99.90;;;;;;5029483;28;20025;-86
2020/12/17 10:59:15;;;;;;;4.30;2.08;;;10.00;99.90;;;;;;5029232;28;20433;-85
2020/12/17 11:01:41;;;;;;;6.90;3.45;;;10.20;99.90;;;;;;5029253;28;20032;-86
2020/12/17 11:04:08;;;;;;;7.25;3.45;;;10.20;99.90;;;;;;5028836;28;20065;-86
2020/12/17 11:06:33;;;;;;;6.93;2.35;;;10.10;99.90;;;;;;5009307;28;20042;-86
2020/12/17 11:08:59;;;;;;;4.70;2.17;;;10.20;99.90;;;;;;5009527;28;20083;-85
2020/12/17 11:11:25;;;;;;;6.50;2.47;;;10.20;99.90;;;;;;4993070;28;20076;-87
2020/12/17 11:13:50;;;;;;;8.52;2.63;;;10.10;99.90;;;;;;5025519;28;20033;-88
2020/12/17 11:16:17;;;;;;;5.78;2.35;;;10.10;99.90;;;;;;5029255;28;20049;-87
2020/12/17 11:18:43;;;;;;;7.03;2.20;;;10.20;99.90;;;;;;5029058;28;20037;-88
2020/12/17 11:21:09;;;;;;;5.30;2.60;;;10.20;99.90;;;;;;5012535;28;20029;-85
2020/12/17 11:23:35;;;;;;;6.70;2.30;;;10.20;99.90;;;;;;5010463;28;20045;-87
2020/12/17 11:26:04;;;;;;;8.30;3.42;;;10.20;99.90;;;;;;5012226;28;20036;-86
2020/12/17 11:28:30;;;;;;;5.13;2.30;;;10.20;99.90;;;;;;5012314;28;20049;-86
2020/12/17 11:30:56;;;;;;;7.18;2.60;;;10.20;99.90;;;;;;5012670;28;20092;-86
2020/12/17 11:33:24;;;;;;;5.18;1.65;;;10.20;99.90;;;;;;5012426;28;20037;-86
2020/12/17 11:35:49;;;;;;;6.88;2.42;;;10.20;99.90;;;;;;5013271;28;20025;-84
2020/12/17 11:38:15;;;;;;;6.00;2.40;;;10.10;99.90;;;;;;5012171;28;20052;-87
2020/12/17 11:40:44;;;;;;;5.25;1.75;;;10.00;99.90;;;;;;5012403;28;20040;-85
2020/12/17 11:43:10;;;;;;;8.30;3.10;;;10.00;99.90;;;;;;5012201;28;20026;-86
2020/12/17 11:45:35;;;;;;;7.22;2.65;;;10.10;99.90;;;;;;5028516;28;20085;-86
2020/12/17 11:48:01;;;;;;;6.18;2.13;;;10.30;99.90;;;;;;5028388;28;20120;-87
2020/12/17 11:50:27;;;;;;;9.30;3.05;;;10.40;99.90;;;;;;5011992;28;20084;-86
2020/12/17 11:53:22;;;;;;;7.47;2.03;;;10.30;99.90;;;;;;5011554;28;20034;-88
2020/12/17 11:55:48;;;;;;;6.75;2.67;;;10.20;99.90;;;;;;5013910;28;20209;-86
2020/12/17 11:58:14;;;;;;;5.20;2.22;;;10.30;99.90;;;;;;5019519;28;20198;-87
2020/12/17 12:00:39;;;;;;;7.15;2.97;;;10.30;99.90;;;;;;5019915;28;20021;-86
2020/12/17 12:03:05;;;;;;;6.78;2.67;;;10.20;99.90;;;;;;5039167;28;20032;-87
2020/12/17 12:05:32;;;;;;;5.40;2.42;;;10.10;99.90;;;;;;5006589;28;20057;-86
2020/12/17 12:07:58;;;;;;;3.67;2.25;;;10.10;99.90;;;;;;5024902;28;20118;-87
2020/12/17 12:10:24;;;;;;;5.38;2.97;;;10.10;99.90;;;;;;5026015;28;20034;-85
2020/12/17 12:12:50;;;;;;;6.43;2.42;;;10.00;99.90;;;;;;5042201;28;20025;-86
2020/12/17 12:15:16;;;;;;;4.10;2.10;;;10.10;99.90;;;;;;5024592;28;20029;-87
2020/12/17 12:17:41;;;;;;;8.38;2.17;;;10.10;99.90;;;;;;5027214;28;20052;-87
2020/12/17 12:20:07;;;;;;;6.32;3.10;;;10.10;99.90;;;;;;5044112;28;20037;-86
2020/12/17 12:22:33;;;;;;;7.53;2.13;;;10.10;99.90;;;;;;5039184;28;20021;-86
2020/12/17 12:24:58;;;;;;;5.28;2.30;;;10.10;99.90;;;;;;5045341;28;20093;-86
2020/12/17 12:27:24;;;;;;;8.27;2.47;;;10.20;99.90;;;;;;5043716;28;20030;-86
2020/12/17 12:29:49;;;;;;;7.32;2.35;;;10.20;99.90;;;;;;5027191;28;20026;-86
2020/12/17 12:32:16;;;;;;;9.45;2.47;;;10.20;99.90;;;;;;5036029;28;20033;-86
2020/12/17 12:34:41;;;;;;;5.22;2.10;;;10.20;99.90;;;;;;5032790;28;20026;-87
2020/12/17 12:37:07;;;;;;;6.95;2.00;;;10.20;99.90;;;;;;5043211;28;20334;-87
2020/12/17 12:39:33;;;;;;;5.10;1.98;;;10.20;99.90;;;;;;5043034;28;20085;-86
2020/12/17 12:41:58;;;;;;;5.60;1.92;;;10.30;99.90;;;;;;5018994;28;20053;-86
2020/12/17 12:44:24;;;;;;;7.32;1.85;;;10.30;99.90;;;;;;5024909;28;20113;-87
2020/12/17 12:46:49;;;;;;;5.68;2.40;;;10.20;99.90;;;;;;5039577;28;20057;-86
2020/12/17 12:49:16;;;;;;;6.45;1.80;;;10.20;99.90;;;;;;5023375;28;20025;-87
2020/12/17 12:51:42;;;;;;;6.43;2.50;;;10.20;99.90;;;;;;5047135;28;20037;-88
2020/12/17 12:54:10;;;;;;;3.00;1.60;;;10.10;99.90;;;;;;5025764;28;20049;-86
2020/12/17 12:56:39;;;;;;;8.63;2.10;;;10.10;99.90;;;;;;5023831;28;20026;-86
2020/12/17 12:59:04;;;;;;;7.53;2.15;;;10.10;99.90;;;;;;5027551;28;20047;-86
2020/12/17 13:01:37;;;;;;;3.97;1.65;;;10.00;99.90;;;;;;5025362;28;20054;-86
2020/12/17 13:04:04;;;;;;;5.20;1.42;;;10.00;99.90;;;;;;5041784;28;20049;-86